sensor_id;sensor_type;location;lat;lon;timestamp;pressure;altitude;pressure_sealevel;temperature;humidity
74621;BME280;64861;47.546;19.254;2023-03-04T00:01:15;99231.81;;;22.68;43.70
74621;BME280;64861;47.546;19.254;2023-03-04T00:03:41;99225.03;;;22.65;43.61
74621;BME280;64861;47.546;19.254;2023-03-04T00:06:07;99230.97;;;22.67;43.71
74621;BME280;64861;47.546;19.254;2023-03-04T00:08:32;99227.50;;;22.67;43.64
74621;BME280;64861;47.546;19.254;2023-03-04T00:10:58;99226.13;;;22.71;43.52
74621;BME280;64861;47.546;19.254;2023-03-04T00:13:23;99231.44;;;22.71;43.59
74621;BME280;64861;47.546;19.254;2023-03-04T00:15:49;99222.81;;;22.69;43.52
74621;BME280;64861;47.546;19.254;2023-03-04T00:18:14;99232.47;;;22.70;43.55
74621;BME280;64861;47.546;19.254;2023-03-04T00:20:40;99225.66;;;22.67;43.39
74621;BME280;64861;47.546;19.254;2023-03-04T00:23:06;99222.63;;;22.70;43.43
74621;BME280;64861;47.546;19.254;2023-03-04T00:25:31;99231.66;;;22.69;43.53
74621;BME280;64861;47.546;19.254;2023-03-04T00:27:58;99221.34;;;22.66;43.56
74621;BME280;64861;47.546;19.254;2023-03-04T00:30:23;99218.97;;;22.71;43.32
74621;BME280;64861;47.546;19.254;2023-03-04T00:32:49;99211.50;;;22.67;43.35
74621;BME280;64861;47.546;19.254;2023-03-04T00:35:15;99219.84;;;22.64;43.30
74621;BME280;64861;47.546;19.254;2023-03-04T00:37:41;99218.69;;;22.66;43.27
74621;BME280;64861;47.546;19.254;2023-03-04T00:40:07;99215.34;;;22.64;43.20
74621;BME280;64861;47.546;19.254;2023-03-04T00:45:00;99215.81;;;22.68;43.23
74621;BME280;64861;47.546;19.254;2023-03-04T00:47:26;99204.69;;;22.64;43.40
74621;BME280;64861;47.546;19.254;2023-03-04T00:49:51;99204.06;;;22.62;43.52
74621;BME280;64861;47.546;19.254;2023-03-04T00:52:19;99204.06;;;22.62;43.43
74621;BME280;64861;47.546;19.254;2023-03-04T00:54:44;99205.50;;;22.65;43.28
74621;BME280;64861;47.546;19.254;2023-03-04T00:57:10;99204.06;;;22.62;43.19
74621;BME280;64861;47.546;19.254;2023-03-04T00:59:35;99209.03;;;22.65;43.24
74621;BME280;64861;47.546;19.254;2023-03-04T01:04:26;99201.22;;;22.64;43.04
74621;BME280;64861;47.546;19.254;2023-03-04T01:06:51;99203.88;;;22.64;43.17
74621;BME280;64861;47.546;19.254;2023-03-04T01:11:42;99197.91;;;22.62;43.15
74621;BME280;64861;47.546;19.254;2023-03-04T01:14:08;99189.25;;;22.60;43.10
74621;BME280;64861;47.546;19.254;2023-03-04T01:16:33;99188.72;;;22.64;43.08
74621;BME280;64861;47.546;19.254;2023-03-04T01:18:59;99184.59;;;22.62;42.85
74621;BME280;64861;47.546;19.254;2023-03-04T01:26:15;99188.09;;;22.62;42.98
74621;BME280;64861;47.546;19.254;2023-03-04T01:28:41;99184.09;;;22.58;43.05
74621;BME280;64861;47.546;19.254;2023-03-04T01:31:06;99181.25;;;22.60;42.93
74621;BME280;64861;47.546;19.254;2023-03-04T01:33:31;99173.28;;;22.60;43.02
74621;BME280;64861;47.546;19.254;2023-03-04T01:35:57;99176.47;;;22.55;42.97
74621;BME280;64861;47.546;19.254;2023-03-04T01:38:23;99170.16;;;22.56;42.96
74621;BME280;64861;47.546;19.254;2023-03-04T01:40:49;99175.75;;;22.61;42.86
74621;BME280;64861;47.546;19.254;2023-03-04T01:43:21;99167.47;;;22.56;42.83
74621;BME280;64861;47.546;19.254;2023-03-04T01:45:48;99168.31;;;22.57;42.94
74621;BME280;64861;47.546;19.254;2023-03-04T01:48:18;99162.78;;;22.58;42.87
74621;BME280;64861;47.546;19.254;2023-03-04T01:50:44;99163.44;;;22.60;42.75
74621;BME280;64861;47.546;19.254;2023-03-04T01:53:18;99148.00;;;22.56;42.62
74621;BME280;64861;47.546;19.254;2023-03-04T01:55:44;99154.31;;;22.55;42.83
74621;BME280;64861;47.546;19.254;2023-03-04T01:58:11;99147.00;;;22.57;42.81
74621;BME280;64861;47.546;19.254;2023-03-04T02:00:37;99146.16;;;22.56;42.64
74621;BME280;64861;47.546;19.254;2023-03-04T02:03:08;99151.66;;;22.55;42.82
74621;BME280;64861;47.546;19.254;2023-03-04T02:05:37;99153.38;;;22.47;42.93
74621;BME280;64861;47.546;19.254;2023-03-04T02:08:04;99147.06;;;22.48;42.77
74621;BME280;64861;47.546;19.254;2023-03-04T02:10:31;99138.88;;;22.50;42.64
74621;BME280;64861;47.546;19.254;2023-03-04T02:12:58;99137.25;;;22.49;42.58
74621;BME280;64861;47.546;19.254;2023-03-04T02:15:24;99133.03;;;22.55;42.46
74621;BME280;64861;47.546;19.254;2023-03-04T02:17:50;99132.38;;;22.52;42.57
74621;BME280;64861;47.546;19.254;2023-03-04T02:20:35;99130.91;;;22.50;42.72
74621;BME280;64861;47.546;19.254;2023-03-04T02:23:11;99130.91;;;22.50;42.62
74621;BME280;64861;47.546;19.254;2023-03-04T02:25:47;99129.38;;;22.56;42.25
74621;BME280;64861;47.546;19.254;2023-03-04T02:28:15;99127.22;;;22.51;42.55
74621;BME280;64861;47.546;19.254;2023-03-04T02:30:41;99127.06;;;22.52;42.65
74621;BME280;64861;47.546;19.254;2023-03-04T02:33:14;99124.75;;;22.49;42.61
74621;BME280;64861;47.546;19.254;2023-03-04T02:35:40;99121.91;;;22.51;42.59
74621;BME280;64861;47.546;19.254;2023-03-04T02:38:05;99116.41;;;22.52;42.52
74621;BME280;64861;47.546;19.254;2023-03-04T02:40:32;99115.59;;;22.52;42.50
74621;BME280;64861;47.546;19.254;2023-03-04T02:42:59;99121.91;;;22.51;42.57
74621;BME280;64861;47.546;19.254;2023-03-04T02:48:02;99113.91;;;22.51;42.49
74621;BME280;64861;47.546;19.254;2023-03-04T02:50:33;99108.78;;;22.49;42.49
74621;BME280;64861;47.546;19.254;2023-03-04T02:52:59;99107.50;;;22.45;42.41
74621;BME280;64861;47.546;19.254;2023-03-04T02:55:24;99104.63;;;22.47;42.33
74621;BME280;64861;47.546;19.254;2023-03-04T02:57:50;99095.97;;;22.45;42.46
74621;BME280;64861;47.546;19.254;2023-03-04T03:00:16;99097.00;;;22.44;42.45
74621;BME280;64861;47.546;19.254;2023-03-04T03:02:41;99106.16;;;22.41;42.44
74621;BME280;64861;47.546;19.254;2023-03-04T03:05:07;99109.28;;;22.45;42.28
74621;BME280;64861;47.546;19.254;2023-03-04T03:07:32;99097.00;;;22.44;42.25
74621;BME280;64861;47.546;19.254;2023-03-04T03:09:59;99090.53;;;22.38;42.29
74621;BME280;64861;47.546;19.254;2023-03-04T03:12:26;99100.47;;;22.44;42.30
74621;BME280;64861;47.546;19.254;2023-03-04T03:14:51;99088.84;;;22.45;42.25
74621;BME280;64861;47.546;19.254;2023-03-04T03:17:16;99087.81;;;22.46;42.14
74621;BME280;64861;47.546;19.254;2023-03-04T03:19:42;99087.81;;;22.46;42.31
74621;BME280;64861;47.546;19.254;2023-03-04T03:22:07;99090.66;;;22.45;42.13
74621;BME280;64861;47.546;19.254;2023-03-04T03:24:33;99093.69;;;22.42;42.27
74621;BME280;64861;47.546;19.254;2023-03-04T03:26:58;99081.38;;;22.41;42.09
74621;BME280;64861;47.546;19.254;2023-03-04T03:29:24;99091.88;;;22.42;42.21
74621;BME280;64861;47.546;19.254;2023-03-04T03:31:49;99082.19;;;22.41;42.10
74621;BME280;64861;47.546;19.254;2023-03-04T03:34:15;99079.19;;;22.44;42.07
74621;BME280;64861;47.546;19.254;2023-03-04T03:36:40;99077.06;;;22.40;42.23
74621;BME280;64861;47.546;19.254;2023-03-04T03:39:06;99075.88;;;22.42;42.17
74621;BME280;64861;47.546;19.254;2023-03-04T03:41:31;99071.38;;;22.43;42.10
74621;BME280;64861;47.546;19.254;2023-03-04T03:43:56;99079.41;;;22.35;42.18
74621;BME280;64861;47.546;19.254;2023-03-04T03:46:22;99075.41;;;22.39;42.05
74621;BME280;64861;47.546;19.254;2023-03-04T03:48:47;99070.25;;;22.37;42.02
74621;BME280;64861;47.546;19.254;2023-03-04T03:51:13;99071.28;;;22.36;41.99
74621;BME280;64861;47.546;19.254;2023-03-04T03:53:38;99067.13;;;22.34;41.84
74621;BME280;64861;47.546;19.254;2023-03-04T03:56:04;99066.56;;;22.38;42.02
74621;BME280;64861;47.546;19.254;2023-03-04T03:58:29;99066.22;;;22.41;41.85
74621;BME280;64861;47.546;19.254;2023-03-04T04:00:55;99069.44;;;22.37;41.98
74621;BME280;64861;47.546;19.254;2023-03-04T04:03:20;99070.25;;;22.37;41.92
74621;BME280;64861;47.546;19.254;2023-03-04T04:05:46;99067.78;;;22.36;42.10
74621;BME280;64861;47.546;19.254;2023-03-04T04:08:13;99066.56;;;22.38;41.91
74621;BME280;64861;47.546;19.254;2023-03-04T04:10:39;99063.09;;;22.38;42.04
74621;BME280;64861;47.546;19.254;2023-03-04T04:13:04;99069.75;;;22.42;42.29
74621;BME280;64861;47.546;19.254;2023-03-04T04:15:30;99063.91;;;22.38;42.11
74621;BME280;64861;47.546;19.254;2023-03-04T04:17:55;99069.44;;;22.37;42.04
74621;BME280;64861;47.546;19.254;2023-03-04T04:20:22;99070.25;;;22.37;42.22
74621;BME280;64861;47.546;19.254;2023-03-04T04:22:50;99075.41;;;22.39;42.10
74621;BME280;64861;47.546;19.254;2023-03-04T04:25:15;99075.59;;;22.37;42.14
74621;BME280;64861;47.546;19.254;2023-03-04T04:27:40;99068.78;;;22.35;42.17
74621;BME280;64861;47.546;19.254;2023-03-04T04:30:06;99069.63;;;22.35;42.11
74621;BME280;64861;47.546;19.254;2023-03-04T04:32:32;99063.44;;;22.35;42.21
74621;BME280;64861;47.546;19.254;2023-03-04T04:34:57;99065.19;;;22.27;42.44
74621;BME280;64861;47.546;19.254;2023-03-04T04:37:23;99067.69;;;22.29;42.24
74621;BME280;64861;47.546;19.254;2023-03-04T04:39:48;99068.31;;;22.31;42.10
74621;BME280;64861;47.546;19.254;2023-03-04T04:42:16;99058.47;;;22.32;42.05
74621;BME280;64861;47.546;19.254;2023-03-04T04:44:42;99063.28;;;22.36;41.95
74621;BME280;64861;47.546;19.254;2023-03-04T04:47:08;99061.91;;;22.40;42.09
74621;BME280;64861;47.546;19.254;2023-03-04T04:49:34;99055.56;;;22.41;42.45
74621;BME280;64861;47.546;19.254;2023-03-04T04:51:59;99061.25;;;22.38;42.47
74621;BME280;64861;47.546;19.254;2023-03-04T04:54:25;99061.25;;;22.38;42.67
74621;BME280;64861;47.546;19.254;2023-03-04T04:56:50;99065.25;;;22.42;42.61
74621;BME280;64861;47.546;19.254;2023-03-04T04:59:16;99058.97;;;22.35;42.79
74621;BME280;64861;47.546;19.254;2023-03-04T05:01:41;99053.66;;;22.35;42.90
74621;BME280;64861;47.546;19.254;2023-03-04T05:04:07;99056.88;;;22.45;42.71
74621;BME280;64861;47.546;19.254;2023-03-04T05:06:32;99053.56;;;22.43;42.65
74621;BME280;64861;47.546;19.254;2023-03-04T05:08:59;99053.94;;;22.40;42.71
74621;BME280;64861;47.546;19.254;2023-03-04T05:11:24;99055.94;;;22.38;42.49
74621;BME280;64861;47.546;19.254;2023-03-04T05:13:50;99058.44;;;22.40;42.32
74621;BME280;64861;47.546;19.254;2023-03-04T05:16:16;99056.13;;;22.37;42.37
74621;BME280;64861;47.546;19.254;2023-03-04T05:18:42;99066.41;;;22.40;42.49
74621;BME280;64861;47.546;19.254;2023-03-04T05:21:08;99068.78;;;22.35;42.83
74621;BME280;64861;47.546;19.254;2023-03-04T05:23:36;99066.78;;;22.37;42.59
74621;BME280;64861;47.546;19.254;2023-03-04T05:26:03;99066.78;;;22.37;42.69
74621;BME280;64861;47.546;19.254;2023-03-04T05:28:29;99066.13;;;22.35;42.40
74621;BME280;64861;47.546;19.254;2023-03-04T05:30:55;99065.38;;;22.26;42.65
74621;BME280;64861;47.546;19.254;2023-03-04T05:33:20;99062.50;;;22.27;42.66
74621;BME280;64861;47.546;19.254;2023-03-04T05:35:47;99078.25;;;22.37;42.49
74621;BME280;64861;47.546;19.254;2023-03-04T05:38:14;99072.81;;;22.31;42.50
74621;BME280;64861;47.546;19.254;2023-03-04T05:40:41;99068.97;;;22.33;42.60
74621;BME280;64861;47.546;19.254;2023-03-04T05:43:07;99075.13;;;22.34;42.54
74621;BME280;64861;47.546;19.254;2023-03-04T05:45:32;99071.16;;;22.30;42.67
74621;BME280;64861;47.546;19.254;2023-03-04T05:47:58;99079.63;;;22.33;42.53
74621;BME280;64861;47.546;19.254;2023-03-04T05:50:24;99078.25;;;22.37;42.46
74621;BME280;64861;47.546;19.254;2023-03-04T05:52:50;99087.59;;;22.33;42.34
74621;BME280;64861;47.546;19.254;2023-03-04T05:55:16;99081.56;;;22.39;42.21
74621;BME280;64861;47.546;19.254;2023-03-04T05:57:42;99088.91;;;22.37;42.38
74621;BME280;64861;47.546;19.254;2023-03-04T06:00:09;99088.97;;;22.29;42.38
74621;BME280;64861;47.546;19.254;2023-03-04T06:02:35;99092.09;;;22.33;42.35
74621;BME280;64861;47.546;19.254;2023-03-04T06:05:02;99089.81;;;22.44;42.09
74621;BME280;64861;47.546;19.254;2023-03-04T06:07:28;99095.50;;;22.41;42.12
74621;BME280;64861;47.546;19.254;2023-03-04T06:09:53;99091.63;;;22.29;42.40
74621;BME280;64861;47.546;19.254;2023-03-04T06:12:19;99103.56;;;22.33;42.46
74621;BME280;64861;47.546;19.254;2023-03-04T06:14:45;99103.09;;;22.30;42.39
74621;BME280;64861;47.546;19.254;2023-03-04T06:17:10;99102.09;;;22.31;42.25
74621;BME280;64861;47.546;19.254;2023-03-04T06:19:39;99101.47;;;22.28;42.43
74621;BME280;64861;47.546;19.254;2023-03-04T06:22:06;99099.06;;;22.34;42.37
74621;BME280;64861;47.546;19.254;2023-03-04T06:24:33;99091.09;;;22.34;42.16
74621;BME280;64861;47.546;19.254;2023-03-04T06:26:58;99097.25;;;22.34;42.11
74621;BME280;64861;47.546;19.254;2023-03-04T06:29:24;99110.56;;;22.34;42.05
74621;BME280;64861;47.546;19.254;2023-03-04T06:31:50;99094.41;;;22.36;42.18
74621;BME280;64861;47.546;19.254;2023-03-04T06:34:15;99110.16;;;22.45;42.38
74621;BME280;64861;47.546;19.254;2023-03-04T06:36:40;99116.47;;;22.44;42.30
74621;BME280;64861;47.546;19.254;2023-03-04T06:39:06;99103.16;;;22.44;42.37
74621;BME280;64861;47.546;19.254;2023-03-04T06:41:32;99115.94;;;22.49;42.38
74621;BME280;64861;47.546;19.254;2023-03-04T06:43:58;99111.78;;;22.46;42.33
74621;BME280;64861;47.546;19.254;2023-03-04T06:46:23;99117.13;;;22.46;42.26
74621;BME280;64861;47.546;19.254;2023-03-04T06:48:49;99116.94;;;22.48;42.25
74621;BME280;64861;47.546;19.254;2023-03-04T06:51:15;99110.78;;;22.47;42.10
74621;BME280;64861;47.546;19.254;2023-03-04T06:53:41;99111.97;;;22.45;42.33
74621;BME280;64861;47.546;19.254;2023-03-04T06:56:10;99110.16;;;22.45;41.95
74621;BME280;64861;47.546;19.254;2023-03-04T06:58:36;99114.94;;;22.50;42.14
74621;BME280;64861;47.546;19.254;2023-03-04T07:01:14;99109.78;;;22.48;42.27
74621;BME280;64861;47.546;19.254;2023-03-04T07:03:39;99116.88;;;22.56;42.22
74621;BME280;64861;47.546;19.254;2023-03-04T07:06:05;99114.47;;;22.46;42.30
74621;BME280;64861;47.546;19.254;2023-03-04T07:08:31;99104.47;;;22.48;42.04
74621;BME280;64861;47.546;19.254;2023-03-04T07:10:56;99113.38;;;22.56;42.04
74621;BME280;64861;47.546;19.254;2023-03-04T07:13:22;99116.16;;;22.62;42.00
74621;BME280;64861;47.546;19.254;2023-03-04T07:15:47;99113.50;;;22.62;42.21
74621;BME280;64861;47.546;19.254;2023-03-04T07:18:13;99110.00;;;22.62;42.16
74621;BME280;64861;47.546;19.254;2023-03-04T07:20:38;99116.63;;;22.66;42.38
74621;BME280;64861;47.546;19.254;2023-03-04T07:23:03;99107.34;;;22.62;42.59
74621;BME280;64861;47.546;19.254;2023-03-04T07:25:29;99115.25;;;22.70;42.43
74621;BME280;64861;47.546;19.254;2023-03-04T07:27:55;99103.06;;;22.75;42.33
74621;BME280;64861;47.546;19.254;2023-03-04T07:30:20;99109.47;;;22.81;41.96
74621;BME280;64861;47.546;19.254;2023-03-04T07:32:45;99103.16;;;22.82;42.18
74621;BME280;64861;47.546;19.254;2023-03-04T07:35:11;99110.84;;;22.77;42.11
74621;BME280;64861;47.546;19.254;2023-03-04T07:37:37;99101.03;;;22.78;42.29
74621;BME280;64861;47.546;19.254;2023-03-04T07:40:05;99101.06;;;22.92;42.20
74621;BME280;64861;47.546;19.254;2023-03-04T07:42:32;99103.88;;;22.91;42.26
74621;BME280;64861;47.546;19.254;2023-03-04T07:44:58;99113.03;;;22.96;42.14
74621;BME280;64861;47.546;19.254;2023-03-04T07:47:26;99107.34;;;23.00;41.95
74621;BME280;64861;47.546;19.254;2023-03-04T07:49:51;99105.56;;;22.92;42.07
74621;BME280;64861;47.546;19.254;2023-03-04T07:52:18;99111.19;;;22.97;42.04
74621;BME280;64861;47.546;19.254;2023-03-04T07:54:43;99102.06;;;22.91;40.59
74621;BME280;64861;47.546;19.254;2023-03-04T07:57:09;99099.94;;;22.72;39.14
74621;BME280;64861;47.546;19.254;2023-03-04T07:59:34;99110.75;;;23.08;40.54
74621;BME280;64861;47.546;19.254;2023-03-04T08:02:00;99110.50;;;23.18;40.89
74621;BME280;64861;47.546;19.254;2023-03-04T08:04:25;99116.53;;;23.27;40.76
74621;BME280;64861;47.546;19.254;2023-03-04T08:06:51;99103.88;;;23.29;40.58
74621;BME280;64861;47.546;19.254;2023-03-04T08:09:16;99107.91;;;23.39;40.63
74621;BME280;64861;47.546;19.254;2023-03-04T08:11:42;99109.19;;;23.43;40.67
74621;BME280;64861;47.546;19.254;2023-03-04T08:14:12;99115.16;;;23.45;40.62
74621;BME280;64861;47.546;19.254;2023-03-04T08:16:38;99114.44;;;23.52;40.48
74621;BME280;64861;47.546;19.254;2023-03-04T08:19:04;99105.97;;;23.48;38.80
74621;BME280;64861;47.546;19.254;2023-03-04T08:21:31;99107.16;;;23.45;39.65
74621;BME280;64861;47.546;19.254;2023-03-04T08:23:58;99099.63;;;23.49;40.17
74621;BME280;64861;47.546;19.254;2023-03-04T08:26:29;99101.16;;;23.43;40.15
74621;BME280;64861;47.546;19.254;2023-03-04T08:28:55;99102.44;;;23.48;40.41
74621;BME280;64861;47.546;19.254;2023-03-04T08:31:25;99096.00;;;23.57;40.06
74621;BME280;64861;47.546;19.254;2023-03-04T08:33:50;99100.59;;;23.63;40.44
74621;BME280;64861;47.546;19.254;2023-03-04T08:36:17;99095.00;;;23.73;39.86
74621;BME280;64861;47.546;19.254;2023-03-04T08:38:42;99101.75;;;23.68;39.26
74621;BME280;64861;47.546;19.254;2023-03-04T08:41:08;99093.34;;;23.72;37.62
74621;BME280;64861;47.546;19.254;2023-03-04T08:43:34;99093.22;;;23.80;38.23
74621;BME280;64861;47.546;19.254;2023-03-04T08:46:00;99095.97;;;23.86;36.28
74621;BME280;64861;47.546;19.254;2023-03-04T08:48:26;99082.31;;;23.96;37.64
74621;BME280;64861;47.546;19.254;2023-03-04T08:50:51;99081.91;;;24.14;37.38
74621;BME280;64861;47.546;19.254;2023-03-04T08:53:18;99079.19;;;23.71;27.52
74621;BME280;64861;47.546;19.254;2023-03-04T08:55:45;99074.66;;;23.57;25.75
74621;BME280;64861;47.546;19.254;2023-03-04T08:58:11;99070.34;;;23.71;25.07
74621;BME280;64861;47.546;19.254;2023-03-04T09:00:39;99066.25;;;24.32;26.30
74621;BME280;64861;47.546;19.254;2023-03-04T09:03:05;99063.06;;;25.00;28.92
74621;BME280;64861;47.546;19.254;2023-03-04T09:05:31;99057.31;;;25.31;29.67
74621;BME280;64861;47.546;19.254;2023-03-04T09:07:57;99065.03;;;25.61;29.44
74621;BME280;64861;47.546;19.254;2023-03-04T09:10:23;99055.06;;;25.89;29.45
74621;BME280;64861;47.546;19.254;2023-03-04T09:12:49;99057.19;;;26.20;28.97
74621;BME280;64861;47.546;19.254;2023-03-04T09:15:14;99045.66;;;26.53;28.97
74621;BME280;64861;47.546;19.254;2023-03-04T09:17:40;99046.66;;;26.79;28.74
74621;BME280;64861;47.546;19.254;2023-03-04T09:20:09;99048.66;;;27.16;28.44
74621;BME280;64861;47.546;19.254;2023-03-04T09:22:40;99048.19;;;27.33;26.90
74621;BME280;64861;47.546;19.254;2023-03-04T09:25:06;99046.00;;;27.61;25.90
74621;BME280;64861;47.546;19.254;2023-03-04T09:27:31;99042.63;;;27.28;23.91
74621;BME280;64861;47.546;19.254;2023-03-04T09:29:57;99041.16;;;27.38;24.29
74621;BME280;64861;47.546;19.254;2023-03-04T09:32:22;99036.84;;;28.07;24.24
74621;BME280;64861;47.546;19.254;2023-03-04T09:34:48;99037.88;;;28.45;24.64
74621;BME280;64861;47.546;19.254;2023-03-04T09:37:14;99042.75;;;28.54;24.17
74621;BME280;64861;47.546;19.254;2023-03-04T09:39:39;99037.91;;;28.82;24.13
74621;BME280;64861;47.546;19.254;2023-03-04T09:42:06;99032.41;;;28.95;23.59
74621;BME280;64861;47.546;19.254;2023-03-04T09:44:37;99028.19;;;29.24;22.91
74621;BME280;64861;47.546;19.254;2023-03-04T09:47:23;99022.84;;;29.36;23.51
74621;BME280;64861;47.546;19.254;2023-03-04T09:50:01;99028.22;;;29.36;23.44
74621;BME280;64861;47.546;19.254;2023-03-04T09:52:39;99026.47;;;29.60;23.31
74621;BME280;64861;47.546;19.254;2023-03-04T09:55:37;99023.56;;;29.43;22.61
74621;BME280;64861;47.546;19.254;2023-03-04T10:00:38;99014.38;;;29.50;23.11
74621;BME280;64861;47.546;19.254;2023-03-04T10:03:12;99020.88;;;29.61;24.29
74621;BME280;64861;47.546;19.254;2023-03-04T10:10:58;99006.66;;;29.84;24.36
74621;BME280;64861;47.546;19.254;2023-03-04T10:13:50;99003.88;;;29.91;24.34
74621;BME280;64861;47.546;19.254;2023-03-04T10:16:20;99006.69;;;29.96;24.78
74621;BME280;64861;47.546;19.254;2023-03-04T10:19:18;98990.19;;;30.04;24.32
74621;BME280;64861;47.546;19.254;2023-03-04T10:21:45;99002.59;;;30.05;24.52
74621;BME280;64861;47.546;19.254;2023-03-04T10:24:15;98993.50;;;29.76;24.89
74621;BME280;64861;47.546;19.254;2023-03-04T10:26:45;98994.03;;;29.85;24.73
74621;BME280;64861;47.546;19.254;2023-03-04T10:29:20;98995.53;;;29.81;25.06
74621;BME280;64861;47.546;19.254;2023-03-04T10:31:46;98988.63;;;29.96;25.17
74621;BME280;64861;47.546;19.254;2023-03-04T10:34:13;98990.25;;;29.86;24.61
74621;BME280;64861;47.546;19.254;2023-03-04T10:37:07;98979.59;;;29.79;24.96
74621;BME280;64861;47.546;19.254;2023-03-04T10:39:41;98986.63;;;29.80;25.19
74621;BME280;64861;47.546;19.254;2023-03-04T10:44:59;98970.56;;;29.73;24.73
74621;BME280;64861;47.546;19.254;2023-03-04T10:47:27;98973.38;;;29.79;25.03
74621;BME280;64861;47.546;19.254;2023-03-04T10:49:56;98968.00;;;29.79;24.63
74621;BME280;64861;47.546;19.254;2023-03-04T10:52:34;98972.69;;;29.83;25.08
74621;BME280;64861;47.546;19.254;2023-03-04T10:55:03;98967.19;;;29.78;25.35
74621;BME280;64861;47.546;19.254;2023-03-04T10:57:38;98970.22;;;29.82;24.79
74621;BME280;64861;47.546;19.254;2023-03-04T11:02:45;98955.50;;;29.84;24.27
74621;BME280;64861;47.546;19.254;2023-03-04T11:07:52;98952.63;;;29.67;25.72
74621;BME280;64861;47.546;19.254;2023-03-04T11:10:41;98944.38;;;29.50;23.88
74621;BME280;64861;47.546;19.254;2023-03-04T11:16:03;98942.50;;;29.21;24.73
74621;BME280;64861;47.546;19.254;2023-03-04T11:18:52;98944.41;;;29.02;25.27
74621;BME280;64861;47.546;19.254;2023-03-04T11:21:23;98939.91;;;28.77;25.68
74621;BME280;64861;47.546;19.254;2023-03-04T11:23:59;98944.31;;;28.72;26.41
74621;BME280;64861;47.546;19.254;2023-03-04T11:26:39;98936.28;;;28.47;27.02
74621;BME280;64861;47.546;19.254;2023-03-04T11:34:50;98925.53;;;26.10;31.05
74621;BME280;64861;47.546;19.254;2023-03-04T11:37:26;98929.19;;;25.76;31.05
74621;BME280;64861;47.546;19.254;2023-03-04T11:40:04;98921.34;;;25.48;31.29
74621;BME280;64861;47.546;19.254;2023-03-04T11:42:48;98912.66;;;25.33;31.55
74621;BME280;64861;47.546;19.254;2023-03-04T11:45:33;98915.28;;;25.19;32.70
74621;BME280;64861;47.546;19.254;2023-03-04T11:48:17;98906.81;;;25.09;32.68
74621;BME280;64861;47.546;19.254;2023-03-04T11:50:50;98903.91;;;25.04;32.15
74621;BME280;64861;47.546;19.254;2023-03-04T11:59:16;98901.63;;;24.94;33.59
74621;BME280;64861;47.546;19.254;2023-03-04T12:13:01;98882.19;;;24.72;32.62
74621;BME280;64861;47.546;19.254;2023-03-04T12:21:09;98886.59;;;24.45;34.45
74621;BME280;64861;47.546;19.254;2023-03-04T12:26:29;98880.16;;;24.39;33.99
74621;BME280;64861;47.546;19.254;2023-03-04T12:31:42;98875.16;;;24.30;34.04
74621;BME280;64861;47.546;19.254;2023-03-04T12:37:20;98871.47;;;24.24;34.35
74621;BME280;64861;47.546;19.254;2023-03-04T12:42:36;98870.38;;;24.19;34.67
74621;BME280;64861;47.546;19.254;2023-03-04T12:45:27;98866.09;;;24.18;34.93
74621;BME280;64861;47.546;19.254;2023-03-04T12:53:29;98846.31;;;24.12;35.27
74621;BME280;64861;47.546;19.254;2023-03-04T12:55:58;98842.84;;;24.11;35.28
74621;BME280;64861;47.546;19.254;2023-03-04T12:58:29;98827.81;;;24.10;35.29
74621;BME280;64861;47.546;19.254;2023-03-04T13:01:14;98833.13;;;24.04;35.02
74621;BME280;64861;47.546;19.254;2023-03-04T13:03:58;98825.53;;;24.01;34.51
74621;BME280;64861;47.546;19.254;2023-03-04T13:06:46;98826.72;;;23.98;34.38
74621;BME280;64861;47.546;19.254;2023-03-04T13:09:23;98813.97;;;23.94;34.62
74621;BME280;64861;47.546;19.254;2023-03-04T13:14:36;98824.84;;;23.92;34.85
74621;BME280;64861;47.546;19.254;2023-03-04T13:22:54;98812.97;;;23.95;34.83
74621;BME280;64861;47.546;19.254;2023-03-04T13:25:30;98804.94;;;23.95;34.88
74621;BME280;64861;47.546;19.254;2023-03-04T13:43:55;98774.13;;;23.92;35.53
74621;BME280;64861;47.546;19.254;2023-03-04T13:51:29;98759.16;;;23.91;35.39
74621;BME280;64861;47.546;19.254;2023-03-04T13:54:10;98761.59;;;23.92;35.65
74621;BME280;64861;47.546;19.254;2023-03-04T13:56:47;98757.31;;;23.91;35.56
74621;BME280;64861;47.546;19.254;2023-03-04T13:59:38;98747.44;;;23.92;35.94
74621;BME280;64861;47.546;19.254;2023-03-04T14:02:23;98744.34;;;23.88;35.68
74621;BME280;64861;47.546;19.254;2023-03-04T14:07:35;98739.63;;;23.90;35.76
74621;BME280;64861;47.546;19.254;2023-03-04T14:12:47;98739.19;;;23.87;35.58
74621;BME280;64861;47.546;19.254;2023-03-04T14:15:21;98736.75;;;23.85;34.68
74621;BME280;64861;47.546;19.254;2023-03-04T14:18:01;98734.72;;;23.87;36.04
74621;BME280;64861;47.546;19.254;2023-03-04T14:20:38;98732.59;;;23.83;36.06
74621;BME280;64861;47.546;19.254;2023-03-04T14:25:49;98734.66;;;23.81;35.63
74621;BME280;64861;47.546;19.254;2023-03-04T14:28:17;98746.97;;;23.82;35.96
74621;BME280;64861;47.546;19.254;2023-03-04T14:30:54;98732.00;;;23.81;36.26
74621;BME280;64861;47.546;19.254;2023-03-04T14:33:28;98738.16;;;23.81;36.02
74621;BME280;64861;47.546;19.254;2023-03-04T14:35:59;98738.56;;;23.78;36.13
74621;BME280;64861;47.546;19.254;2023-03-04T14:38:33;98747.97;;;23.74;36.55
74621;BME280;64861;47.546;19.254;2023-03-04T14:41:01;98748.59;;;23.76;35.23
74621;BME280;64861;47.546;19.254;2023-03-04T14:43:34;98755.97;;;23.74;35.67
74621;BME280;64861;47.546;19.254;2023-03-04T14:46:02;98746.31;;;23.73;35.03
74621;BME280;64861;47.546;19.254;2023-03-04T14:48:31;98742.63;;;23.74;35.45
74621;BME280;64861;47.546;19.254;2023-03-04T14:50:58;98743.47;;;23.75;35.99
74621;BME280;64861;47.546;19.254;2023-03-04T14:53:27;98740.41;;;23.78;35.97